createdAt,value
2018-12-13T00:00:02.555Z,1.60
2018-12-13T00:01:02.557Z,1.60
2018-12-13T00:02:02.559Z,1.70
2018-12-13T00:03:02.563Z,1.40
2018-12-13T00:04:02.565Z,1.40
2018-12-13T00:05:02.569Z,1.60
2018-12-13T00:06:02.571Z,1.50
2018-12-13T00:07:02.575Z,1.70
2018-12-13T00:08:02.578Z,1.70
2018-12-13T00:09:02.581Z,1.70
2018-12-13T00:10:02.587Z,1.70
2018-12-13T00:11:02.588Z,1.90
2018-12-13T00:12:02.590Z,1.90
2018-12-13T00:13:02.595Z,1.80
2018-12-13T00:14:02.597Z,1.60
2018-12-13T00:15:02.600Z,1.60
2018-12-13T00:16:02.602Z,2.00
2018-12-13T00:17:02.606Z,1.70
2018-12-13T00:18:02.612Z,1.60
2018-12-13T00:19:02.617Z,1.90
2018-12-13T00:20:02.615Z,1.90
2018-12-13T00:21:02.618Z,2.00
2018-12-13T00:22:02.623Z,1.70
2018-12-13T00:23:02.625Z,2.20
2018-12-13T00:24:02.627Z,1.90
2018-12-13T00:25:02.631Z,1.70
2018-12-13T00:26:02.634Z,2.00
2018-12-13T00:27:02.640Z,1.90
2018-12-13T00:28:02.640Z,2.20
2018-12-13T00:29:02.643Z,1.80
2018-12-13T00:30:02.649Z,1.90
2018-12-13T00:31:02.650Z,2.10
2018-12-13T00:32:02.658Z,2.00
2018-12-13T00:33:02.656Z,1.90
2018-12-13T00:34:02.660Z,1.70
2018-12-13T00:35:02.662Z,1.70
2018-12-13T00:36:02.664Z,1.90
2018-12-13T00:37:02.673Z,1.90
2018-12-13T00:38:02.671Z,1.80
2018-12-13T00:39:02.675Z,1.80
2018-12-13T00:40:02.677Z,1.90
2018-12-13T00:41:02.681Z,1.90
2018-12-13T00:42:02.684Z,1.90
2018-12-13T00:43:02.697Z,1.80
2018-12-13T00:44:02.689Z,1.70
2018-12-13T00:45:02.693Z,1.50
2018-12-13T00:46:02.696Z,1.60
2018-12-13T00:47:02.699Z,1.90
2018-12-13T00:48:02.702Z,1.70
2018-12-13T00:49:02.706Z,1.70
2018-12-13T00:50:02.712Z,1.70
2018-12-13T00:51:02.715Z,1.80
2018-12-13T00:52:02.716Z,1.60
2018-12-13T00:53:02.718Z,1.60
2018-12-13T00:54:02.723Z,1.60
2018-12-13T00:55:02.725Z,1.80
2018-12-13T00:56:02.784Z,1.60
2018-12-13T00:57:02.731Z,1.90
2018-12-13T00:58:02.733Z,1.30
2018-12-13T00:59:02.737Z,1.50
2018-12-13T01:00:02.740Z,1.50
2018-12-13T01:01:02.743Z,1.50
2018-12-13T01:02:02.747Z,1.40
2018-12-13T01:03:02.749Z,1.50
2018-12-13T01:04:02.752Z,1.50
2018-12-13T01:05:02.755Z,1.30
2018-12-13T01:06:02.759Z,1.40
2018-12-13T01:07:02.762Z,1.40
2018-12-13T01:08:02.764Z,1.60
2018-12-13T01:09:02.767Z,1.60
2018-12-13T01:10:02.771Z,1.50
2018-12-13T01:11:02.775Z,1.50
2018-12-13T01:12:02.779Z,1.50
2018-12-13T01:13:02.780Z,1.40
2018-12-13T01:14:02.783Z,1.40
2018-12-13T01:15:02.795Z,1.20
2018-12-13T01:16:02.795Z,1.50
2018-12-13T01:17:02.798Z,1.30
2018-12-13T01:18:02.797Z,1.30
2018-12-13T01:19:02.799Z,1.40
2018-12-13T01:20:02.802Z,1.40
2018-12-13T01:21:02.807Z,1.40
2018-12-13T01:22:02.807Z,1.80
2018-12-13T01:23:02.812Z,1.50
2018-12-13T01:24:02.820Z,1.30
2018-12-13T01:25:02.819Z,1.40
2018-12-13T01:26:02.821Z,1.30
2018-12-13T01:27:02.826Z,1.50
2018-12-13T01:28:02.827Z,1.30
2018-12-13T01:29:02.828Z,1.60
2018-12-13T01:30:02.836Z,1.50
2018-12-13T01:31:02.838Z,1.40
2018-12-13T01:32:02.839Z,1.30
2018-12-13T01:33:02.845Z,1.40
2018-12-13T01:34:02.847Z,1.60
2018-12-13T01:35:02.850Z,1.70
2018-12-13T01:36:02.851Z,1.30
2018-12-13T01:37:02.854Z,1.40
2018-12-13T01:38:02.858Z,1.40
2018-12-13T01:39:02.861Z,1.40
2018-12-13T01:40:02.863Z,1.30
2018-12-13T01:41:02.884Z,1.30
2018-12-13T01:42:02.876Z,1.30
2018-12-13T01:43:02.876Z,1.20
2018-12-13T01:44:02.877Z,1.10
2018-12-13T01:45:02.879Z,1.30
2018-12-13T01:46:02.882Z,1.30
2018-12-13T01:47:02.886Z,1.20
2018-12-13T01:48:02.889Z,1.40
2018-12-13T01:49:02.892Z,1.40
2018-12-13T01:50:02.895Z,1.10
2018-12-13T01:51:02.898Z,1.10
2018-12-13T01:52:02.914Z,1.30
2018-12-13T01:53:02.905Z,1.30
2018-12-13T01:54:02.908Z,1.50
2018-12-13T01:55:02.910Z,1.30
2018-12-13T01:56:02.963Z,1.30
2018-12-13T01:57:02.916Z,1.00
2018-12-13T01:58:02.920Z,1.20
2018-12-13T01:59:02.922Z,1.10
2018-12-13T02:00:02.925Z,1.20
2018-12-13T02:01:02.928Z,1.40
2018-12-13T02:02:02.931Z,1.30
2018-12-13T02:03:02.935Z,1.30
2018-12-13T02:04:02.970Z,1.20
2018-12-13T02:05:02.943Z,1.30
2018-12-13T02:06:02.944Z,1.00
2018-12-13T02:07:02.948Z,1.40
2018-12-13T02:08:02.949Z,1.20
2018-12-13T02:09:02.953Z,1.20
2018-12-13T02:10:02.955Z,1.30
2018-12-13T02:11:02.959Z,1.20
2018-12-13T02:12:02.962Z,1.20
2018-12-13T02:13:02.967Z,1.30
2018-12-13T02:14:02.968Z,1.20
2018-12-13T02:15:02.972Z,1.20
2018-12-13T02:16:03.024Z,1.50
2018-12-13T02:17:02.977Z,1.00
2018-12-13T02:18:02.980Z,1.20
2018-12-13T02:19:02.984Z,1.10
2018-12-13T02:20:02.986Z,1.30
2018-12-13T02:21:02.990Z,1.30
2018-12-13T02:22:02.991Z,1.20
2018-12-13T02:23:02.996Z,1.20
2018-12-13T02:24:02.998Z,1.20
2018-12-13T02:25:03.001Z,1.30
2018-12-13T02:26:03.009Z,1.00
2018-12-13T02:27:03.008Z,1.20
2018-12-13T02:28:03.010Z,1.20
2018-12-13T02:29:03.022Z,1.20
2018-12-13T02:30:03.019Z,1.10
2018-12-13T02:31:03.021Z,1.30
2018-12-13T02:32:03.026Z,1.20
2018-12-13T02:33:03.025Z,1.20
2018-12-13T02:34:03.030Z,1.20
2018-12-13T02:35:03.059Z,1.10
2018-12-13T02:36:03.841Z,1.00
2018-12-13T02:37:06.234Z,1.30
2018-12-13T02:38:03.043Z,1.20
2018-12-13T02:39:03.052Z,1.10
2018-12-13T02:40:03.048Z,1.20
2018-12-13T02:41:03.050Z,1.10
2018-12-13T02:42:03.053Z,1.20
2018-12-13T02:43:03.056Z,1.20
2018-12-13T02:44:03.059Z,1.30
2018-12-13T02:45:03.069Z,1.50
2018-12-13T02:46:03.065Z,1.20
2018-12-13T02:47:03.070Z,1.10
2018-12-13T02:48:03.072Z,1.30
2018-12-13T02:49:03.075Z,1.10
2018-12-13T02:50:03.083Z,1.20
2018-12-13T02:51:03.081Z,1.40
2018-12-13T02:52:03.083Z,1.40
2018-12-13T02:53:03.087Z,1.10
2018-12-13T02:54:03.090Z,1.30
2018-12-13T02:55:03.104Z,1.20
2018-12-13T02:56:03.096Z,1.40
2018-12-13T02:57:03.097Z,1.10
2018-12-13T02:58:03.136Z,1.10
2018-12-13T02:59:03.106Z,1.10
2018-12-13T03:00:03.108Z,1.20
2018-12-13T03:01:03.114Z,1.40
2018-12-13T03:02:03.115Z,1.20
2018-12-13T03:03:03.122Z,1.50
2018-12-13T03:04:03.121Z,1.90
2018-12-13T03:05:03.141Z,1.20
2018-12-13T03:06:03.127Z,1.30
2018-12-13T03:07:03.132Z,1.30
2018-12-13T03:08:03.131Z,1.50
2018-12-13T03:09:03.136Z,1.40
2018-12-13T03:10:03.139Z,1.40
2018-12-13T03:11:03.143Z,1.60
2018-12-13T03:12:03.144Z,1.50
2018-12-13T03:13:03.146Z,1.40
2018-12-13T03:14:03.150Z,1.50
2018-12-13T03:15:03.154Z,1.40
2018-12-13T03:16:03.156Z,1.30
2018-12-13T03:17:03.160Z,1.60
2018-12-13T03:18:03.163Z,1.80
2018-12-13T03:19:03.156Z,1.60
2018-12-13T03:20:03.167Z,1.60
2018-12-13T03:21:03.162Z,1.60
2018-12-13T03:22:03.167Z,1.60
2018-12-13T03:23:03.170Z,1.60
2018-12-13T03:24:03.170Z,1.70
2018-12-13T03:25:03.174Z,1.70
2018-12-13T03:26:03.177Z,1.90
2018-12-13T03:27:03.181Z,1.70
2018-12-13T03:28:03.182Z,1.70
2018-12-13T03:29:03.185Z,1.80
2018-12-13T03:30:03.191Z,1.80
2018-12-13T03:31:03.201Z,1.60
2018-12-13T03:32:03.211Z,1.80
2018-12-13T03:33:03.214Z,1.70
2018-12-13T03:34:03.203Z,1.60
2018-12-13T03:35:03.210Z,1.70
2018-12-13T03:36:03.212Z,1.70
2018-12-13T03:37:03.210Z,1.80
2018-12-13T03:38:03.212Z,1.70
2018-12-13T03:39:03.218Z,1.90
2018-12-13T03:40:03.218Z,1.80
2018-12-13T03:41:03.223Z,1.90
2018-12-13T03:42:03.225Z,1.90
2018-12-13T03:43:03.228Z,2.00
2018-12-13T03:44:03.232Z,1.80
2018-12-13T03:45:03.233Z,2.00
2018-12-13T03:46:03.237Z,1.70
2018-12-13T03:47:03.241Z,1.90
2018-12-13T03:48:03.244Z,1.80
2018-12-13T03:49:03.249Z,1.90
2018-12-13T03:50:03.249Z,2.10
2018-12-13T03:51:03.253Z,1.80
2018-12-13T03:52:03.256Z,1.90
2018-12-13T03:53:03.260Z,1.80
2018-12-13T03:54:03.262Z,2.10
2018-12-13T03:55:03.266Z,2.00
2018-12-13T03:56:03.267Z,2.10
2018-12-13T03:57:03.270Z,1.80
2018-12-13T03:58:03.274Z,2.00
2018-12-13T03:59:03.287Z,2.00
2018-12-13T04:00:03.279Z,1.80
2018-12-13T04:01:03.284Z,1.90
2018-12-13T04:02:03.285Z,1.80
2018-12-13T04:03:03.299Z,1.80
2018-12-13T04:04:03.290Z,1.90
2018-12-13T04:05:03.302Z,2.00
2018-12-13T04:06:03.297Z,2.00
2018-12-13T04:07:03.300Z,1.90
2018-12-13T04:08:03.302Z,2.00
2018-12-13T04:09:03.308Z,1.90
2018-12-13T04:10:03.312Z,1.80
2018-12-13T04:11:03.313Z,1.90
2018-12-13T04:12:03.315Z,1.70
2018-12-13T04:13:03.323Z,1.80
2018-12-13T04:14:03.322Z,1.80
2018-12-13T04:15:03.324Z,1.70
2018-12-13T04:16:03.329Z,1.90
2018-12-13T04:17:03.329Z,1.60
2018-12-13T04:18:03.334Z,1.90
2018-12-13T04:19:03.336Z,1.70
2018-12-13T04:20:03.340Z,1.80
2018-12-13T04:21:03.343Z,1.90
2018-12-13T04:22:03.344Z,1.70
2018-12-13T04:23:03.349Z,1.80
2018-12-13T04:24:03.351Z,1.80
2018-12-13T04:25:03.354Z,2.00
2018-12-13T04:26:03.359Z,2.10
2018-12-13T04:27:03.365Z,1.80
2018-12-13T04:28:03.364Z,1.80
2018-12-13T04:29:03.367Z,2.00
2018-12-13T04:30:03.370Z,2.00
2018-12-13T04:31:03.376Z,1.80
2018-12-13T04:32:03.382Z,1.70
2018-12-13T04:33:03.377Z,1.80
2018-12-13T04:34:03.393Z,1.90
2018-12-13T04:35:03.390Z,1.80
2018-12-13T04:36:03.390Z,1.70
2018-12-13T04:37:03.392Z,1.80
2018-12-13T04:38:03.393Z,1.80
2018-12-13T04:39:03.397Z,1.90
2018-12-13T04:40:03.400Z,1.70
2018-12-13T04:41:03.401Z,1.80
2018-12-13T04:42:03.406Z,1.90
2018-12-13T04:43:03.408Z,1.90
2018-12-13T04:44:03.411Z,1.80
2018-12-13T04:45:03.413Z,1.60
2018-12-13T04:46:03.417Z,1.60
2018-12-13T04:47:03.420Z,1.70
2018-12-13T04:48:03.422Z,1.60
2018-12-13T04:49:03.427Z,1.70
2018-12-13T04:50:03.429Z,1.80
2018-12-13T04:51:03.433Z,1.70
2018-12-13T04:52:03.435Z,1.50
2018-12-13T04:53:03.438Z,1.80
2018-12-13T04:54:03.441Z,2.10
2018-12-13T04:55:03.450Z,1.90
2018-12-13T04:56:03.449Z,1.60
2018-12-13T04:57:03.453Z,1.70
2018-12-13T04:58:03.469Z,1.60
2018-12-13T04:59:03.470Z,1.50
2018-12-13T05:00:03.472Z,1.80
2018-12-13T05:01:03.478Z,1.90
2018-12-13T05:02:03.479Z,1.50
2018-12-13T05:03:03.482Z,1.70
2018-12-13T05:04:03.482Z,1.50
2018-12-13T05:05:03.487Z,1.70
2018-12-13T05:06:03.487Z,1.80
2018-12-13T05:07:03.491Z,1.90
2018-12-13T05:08:03.492Z,1.50
2018-12-13T05:09:03.495Z,1.50
2018-12-13T05:10:03.498Z,1.70
2018-12-13T05:11:03.502Z,1.70
2018-12-13T05:12:03.518Z,1.50
2018-12-13T05:13:03.507Z,1.40
2018-12-13T05:14:03.512Z,1.60
2018-12-13T05:15:03.514Z,1.70
2018-12-13T05:16:03.517Z,1.60
2018-12-13T05:17:03.522Z,1.70
2018-12-13T05:18:03.523Z,1.80
2018-12-13T05:19:03.527Z,1.80
2018-12-13T05:20:03.528Z,1.80
2018-12-13T05:21:03.632Z,1.80
2018-12-13T05:22:03.543Z,1.70
2018-12-13T05:23:03.545Z,1.60
2018-12-13T05:24:03.543Z,1.60
2018-12-13T05:25:03.548Z,1.60
2018-12-13T05:26:03.556Z,1.60
2018-12-13T05:27:03.551Z,1.60
2018-12-13T05:28:03.556Z,1.60
2018-12-13T05:29:03.556Z,1.40
2018-12-13T05:30:03.558Z,1.60
2018-12-13T05:31:03.562Z,1.50
2018-12-13T05:32:03.565Z,1.60
2018-12-13T05:33:03.568Z,1.60
2018-12-13T05:34:03.571Z,1.50
2018-12-13T05:35:03.575Z,1.70
2018-12-13T05:36:03.579Z,1.40
2018-12-13T05:37:03.580Z,1.40
2018-12-13T05:38:03.583Z,1.40
2018-12-13T05:39:03.587Z,1.50
2018-12-13T05:40:03.590Z,1.80
2018-12-13T05:41:03.592Z,1.40
2018-12-13T05:42:03.595Z,1.30
2018-12-13T05:43:03.600Z,1.50
2018-12-13T05:44:03.601Z,1.40
2018-12-13T05:45:03.604Z,1.30
2018-12-13T05:46:03.608Z,1.40
2018-12-13T05:47:03.611Z,1.20
2018-12-13T05:48:03.613Z,1.30
2018-12-13T05:49:03.617Z,1.30
2018-12-13T05:50:03.620Z,1.20
2018-12-13T05:51:03.627Z,1.10
2018-12-13T05:52:03.625Z,1.10
2018-12-13T05:53:03.629Z,1.00
2018-12-13T05:54:03.632Z,1.20
2018-12-13T05:55:03.636Z,0.90
2018-12-13T05:56:03.637Z,1.00
2018-12-13T05:57:03.641Z,1.10
2018-12-13T05:58:03.645Z,1.10
2018-12-13T05:59:03.648Z,0.90
2018-12-13T06:00:03.649Z,1.00
2018-12-13T06:01:03.712Z,1.20
2018-12-13T06:02:03.656Z,1.10
2018-12-13T06:03:03.659Z,1.00
2018-12-13T06:04:03.664Z,0.90
2018-12-13T06:05:03.666Z,0.90
2018-12-13T06:06:03.670Z,0.90
2018-12-13T06:07:03.672Z,0.90
2018-12-13T06:08:03.674Z,0.90
2018-12-13T06:09:03.677Z,0.80
2018-12-13T06:10:03.680Z,0.70
2018-12-13T06:11:03.690Z,1.00
2018-12-13T06:12:03.686Z,0.90
2018-12-13T06:13:03.689Z,1.00
2018-12-13T06:14:03.692Z,0.90
2018-12-13T06:15:03.695Z,0.80
2018-12-13T06:16:03.757Z,0.80
2018-12-13T06:17:03.703Z,0.80
2018-12-13T06:18:06.763Z,0.90
2018-12-13T06:19:03.707Z,0.80
2018-12-13T06:20:03.711Z,0.80
2018-12-13T06:21:03.719Z,0.80
2018-12-13T06:22:03.720Z,0.70
2018-12-13T06:23:03.720Z,0.80
2018-12-13T06:24:03.722Z,0.80
2018-12-13T06:25:03.734Z,0.80
2018-12-13T06:26:03.728Z,0.80
2018-12-13T06:27:03.732Z,0.60
2018-12-13T06:28:03.734Z,0.80
2018-12-13T06:29:03.736Z,0.70
2018-12-13T06:30:07.498Z,0.70
2018-12-13T06:31:03.744Z,0.70
2018-12-13T06:32:03.745Z,0.60
2018-12-13T06:33:03.748Z,0.70
2018-12-13T06:34:03.753Z,0.70
2018-12-13T06:35:03.755Z,0.60
2018-12-13T06:36:03.759Z,0.70
2018-12-13T06:37:03.761Z,0.70
2018-12-13T06:38:03.764Z,0.70
2018-12-13T06:39:03.767Z,0.50
2018-12-13T06:40:03.782Z,0.60
2018-12-13T06:41:03.774Z,0.60
2018-12-13T06:42:03.780Z,0.70
2018-12-13T06:43:03.780Z,0.70
2018-12-13T06:44:03.782Z,0.70
2018-12-13T06:45:03.784Z,0.50
2018-12-13T06:46:03.835Z,0.70
2018-12-13T06:47:03.791Z,0.60
2018-12-13T06:48:03.794Z,0.70
2018-12-13T06:49:03.796Z,0.70
2018-12-13T06:50:03.800Z,0.60
2018-12-13T06:51:03.803Z,0.50
2018-12-13T06:52:03.807Z,0.70
2018-12-13T06:53:03.812Z,0.60
2018-12-13T06:54:03.814Z,0.70
2018-12-13T06:55:03.814Z,0.50
2018-12-13T06:56:03.817Z,0.60
2018-12-13T06:57:03.833Z,0.60
2018-12-13T06:58:03.823Z,0.60
2018-12-13T06:59:03.827Z,0.60
2018-12-13T07:00:03.829Z,0.60
2018-12-13T07:01:03.832Z,0.60
2018-12-13T07:02:03.852Z,0.40
2018-12-13T07:03:03.841Z,0.60
2018-12-13T07:04:03.846Z,0.40
2018-12-13T07:05:03.844Z,0.60
2018-12-13T07:06:03.847Z,0.50
2018-12-13T07:07:03.850Z,0.60
2018-12-13T07:08:07.843Z,0.50
2018-12-13T07:09:03.867Z,0.60
2018-12-13T07:10:03.859Z,0.50
2018-12-13T07:11:03.864Z,0.50
2018-12-13T07:12:03.867Z,0.60
2018-12-13T07:13:03.871Z,0.50
2018-12-13T07:14:03.871Z,0.50
2018-12-13T07:15:03.874Z,0.50
2018-12-13T07:16:03.876Z,0.50
2018-12-13T07:17:03.882Z,0.50
2018-12-13T07:18:03.884Z,0.50
2018-12-13T07:19:03.887Z,0.50
2018-12-13T07:20:03.889Z,0.50
2018-12-13T07:21:03.891Z,0.40
2018-12-13T07:22:03.893Z,0.60
2018-12-13T07:23:03.898Z,0.50
2018-12-13T07:24:03.901Z,0.60
2018-12-13T07:25:03.910Z,0.40
2018-12-13T07:26:03.907Z,0.60
2018-12-13T07:27:03.910Z,0.50
2018-12-13T07:28:03.912Z,0.50
2018-12-13T07:29:03.916Z,0.40
2018-12-13T07:30:03.923Z,0.50
2018-12-13T07:31:03.922Z,0.40
2018-12-13T07:32:03.924Z,0.50
2018-12-13T07:33:03.928Z,0.50
2018-12-13T07:34:03.932Z,0.50
2018-12-13T07:35:03.942Z,0.50
2018-12-13T07:36:03.937Z,0.50
2018-12-13T07:37:03.936Z,0.50
2018-12-13T07:38:03.943Z,0.60
2018-12-13T07:39:03.946Z,0.60
2018-12-13T07:40:03.949Z,0.50
2018-12-13T07:41:03.952Z,0.40
2018-12-13T07:42:03.955Z,0.40
2018-12-13T07:43:03.959Z,0.40
2018-12-13T07:44:03.958Z,0.40
2018-12-13T07:45:03.963Z,0.40
2018-12-13T07:46:03.966Z,0.40
2018-12-13T07:47:03.971Z,0.70
2018-12-13T07:48:03.973Z,0.40
2018-12-13T07:49:03.974Z,0.50
2018-12-13T07:50:03.980Z,0.50
2018-12-13T07:51:03.982Z,0.40
2018-12-13T07:52:03.984Z,0.60
2018-12-13T07:53:03.993Z,0.60
2018-12-13T07:54:03.991Z,0.50
2018-12-13T07:55:03.994Z,0.60
2018-12-13T07:56:03.994Z,0.50
2018-12-13T07:57:04.000Z,0.60
2018-12-13T07:58:04.003Z,0.60
2018-12-13T07:59:04.006Z,0.50
2018-12-13T08:00:04.007Z,1.20
2018-12-13T08:01:04.010Z,0.70
2018-12-13T08:02:04.016Z,0.80
2018-12-13T08:03:04.018Z,0.80
2018-12-13T08:04:04.018Z,0.70
2018-12-13T08:05:04.023Z,0.70
2018-12-13T08:06:04.027Z,0.50
2018-12-13T08:07:04.030Z,0.60
2018-12-13T08:08:04.030Z,0.70
2018-12-13T08:09:04.037Z,0.60
2018-12-13T08:10:04.040Z,0.60
2018-12-13T08:11:04.046Z,0.70
2018-12-13T08:12:04.044Z,0.70
2018-12-13T08:13:04.047Z,0.70
2018-12-13T08:14:04.053Z,0.80
2018-12-13T08:15:04.066Z,0.60
2018-12-13T08:16:04.067Z,0.80
2018-12-13T08:17:04.069Z,0.50
2018-12-13T08:18:04.070Z,0.60
2018-12-13T08:19:04.071Z,0.60
2018-12-13T08:20:04.069Z,0.70
2018-12-13T08:21:04.090Z,0.70
2018-12-13T08:22:04.077Z,0.70
2018-12-13T08:23:04.084Z,0.60
2018-12-13T08:24:04.082Z,0.70
2018-12-13T08:25:04.085Z,0.60
2018-12-13T08:26:04.090Z,0.60
2018-12-13T08:27:04.092Z,0.60
2018-12-13T08:28:04.095Z,0.70
2018-12-13T08:29:04.097Z,0.60
2018-12-13T08:30:04.101Z,0.60
2018-12-13T08:31:04.155Z,0.60
2018-12-13T08:32:04.108Z,0.70
2018-12-13T08:33:04.114Z,0.70
2018-12-13T08:34:04.114Z,0.80
2018-12-13T08:35:04.117Z,0.50
2018-12-13T08:36:04.120Z,0.60
2018-12-13T08:37:04.122Z,0.60
2018-12-13T08:38:04.127Z,0.60
2018-12-13T08:39:04.133Z,0.80
2018-12-13T08:40:04.147Z,0.70
2018-12-13T08:41:04.151Z,0.60
2018-12-13T08:42:04.149Z,0.50
2018-12-13T08:43:04.152Z,0.60
2018-12-13T08:44:04.152Z,0.60
2018-12-13T08:45:04.156Z,0.70
2018-12-13T08:46:04.152Z,0.60
2018-12-13T08:47:04.156Z,0.80
2018-12-13T08:48:04.158Z,0.70
2018-12-13T08:49:04.162Z,0.50
2018-12-13T08:50:04.173Z,0.70
2018-12-13T08:51:04.219Z,0.60
2018-12-13T08:52:04.171Z,0.50
2018-12-13T08:53:04.175Z,0.60
2018-12-13T08:54:04.199Z,0.80
2018-12-13T08:55:04.183Z,0.70
2018-12-13T08:56:04.186Z,0.60
2018-12-13T08:57:04.191Z,0.60
2018-12-13T08:58:04.198Z,0.50
2018-12-13T08:59:04.199Z,0.60
2018-12-13T09:00:04.196Z,0.60
2018-12-13T09:01:04.252Z,0.90
2018-12-13T09:02:04.203Z,0.70
2018-12-13T09:03:04.204Z,0.60
2018-12-13T09:04:04.209Z,0.90
2018-12-13T09:05:04.212Z,0.60
2018-12-13T09:06:04.218Z,0.60
2018-12-13T09:07:04.222Z,0.70
2018-12-13T09:08:04.222Z,0.50
2018-12-13T09:09:04.229Z,0.50
2018-12-13T09:10:04.228Z,0.70
2018-12-13T09:11:04.233Z,0.50
2018-12-13T09:12:04.235Z,0.60
2018-12-13T09:13:04.238Z,0.50
2018-12-13T09:14:04.241Z,0.70
2018-12-13T09:15:04.245Z,0.50
2018-12-13T09:16:04.247Z,0.50
2018-12-13T09:17:04.249Z,0.60
2018-12-13T09:18:04.255Z,0.70
2018-12-13T09:19:04.257Z,0.80
2018-12-13T09:20:04.264Z,0.80
2018-12-13T09:21:04.265Z,0.90
2018-12-13T09:22:04.265Z,0.60
2018-12-13T09:23:04.271Z,0.80
2018-12-13T09:24:04.272Z,0.70
2018-12-13T09:25:04.276Z,0.70
2018-12-13T09:26:04.280Z,0.60
2018-12-13T09:27:04.281Z,0.90
2018-12-13T09:28:04.287Z,0.60
2018-12-13T09:29:04.289Z,0.60
2018-12-13T09:30:04.292Z,0.70
2018-12-13T09:31:04.349Z,0.60
2018-12-13T09:32:04.298Z,0.70
2018-12-13T09:33:04.307Z,0.70
2018-12-13T09:34:04.306Z,0.60
2018-12-13T09:35:04.311Z,0.60
2018-12-13T09:36:04.312Z,0.60
2018-12-13T09:37:04.316Z,0.60
2018-12-13T09:38:04.319Z,0.70
2018-12-13T09:39:04.322Z,0.60
2018-12-13T09:40:04.325Z,0.70
2018-12-13T09:41:04.331Z,0.70
2018-12-13T09:42:04.331Z,0.70
2018-12-13T09:43:04.335Z,0.60
2018-12-13T09:44:04.338Z,0.70
2018-12-13T09:45:04.343Z,0.50
2018-12-13T09:46:04.345Z,0.60
2018-12-13T09:47:04.348Z,0.60
2018-12-13T09:48:04.351Z,0.80
2018-12-13T09:49:04.362Z,0.60
2018-12-13T09:50:04.356Z,0.40
2018-12-13T09:51:04.372Z,0.50
2018-12-13T09:52:04.365Z,1.10
2018-12-13T09:53:04.368Z,0.60
2018-12-13T09:54:04.374Z,0.70
2018-12-13T09:55:05.846Z,0.40
2018-12-13T09:56:04.384Z,0.60
2018-12-13T09:57:04.382Z,0.50
2018-12-13T09:58:04.386Z,0.50
2018-12-13T09:59:04.389Z,0.40
2018-12-13T10:00:04.392Z,0.50
2018-12-13T10:01:04.393Z,0.50
2018-12-13T10:02:04.401Z,0.50
2018-12-13T10:03:04.402Z,0.40
2018-12-13T10:04:04.405Z,0.40
2018-12-13T10:05:04.407Z,0.50
2018-12-13T10:06:04.412Z,0.40
2018-12-13T10:07:04.416Z,0.40
2018-12-13T10:08:04.419Z,0.50
2018-12-13T10:09:04.421Z,0.60
2018-12-13T10:10:04.429Z,0.40
2018-12-13T10:11:04.429Z,0.50
2018-12-13T10:12:04.431Z,0.40
2018-12-13T10:13:04.439Z,0.40
2018-12-13T10:14:04.438Z,0.40
2018-12-13T10:15:04.442Z,0.40
2018-12-13T10:16:04.445Z,0.40
2018-12-13T10:17:04.453Z,0.30
2018-12-13T10:18:04.453Z,0.30
2018-12-13T10:19:04.457Z,0.40
2018-12-13T10:20:04.477Z,0.50
2018-12-13T10:21:04.464Z,0.30
2018-12-13T10:22:04.469Z,0.50
2018-12-13T10:23:04.475Z,0.50
2018-12-13T10:24:04.478Z,0.40
2018-12-13T10:25:04.475Z,0.40
2018-12-13T10:26:04.531Z,0.40
2018-12-13T10:27:04.484Z,0.40
2018-12-13T10:28:04.487Z,0.40
2018-12-13T10:29:04.492Z,0.40
2018-12-13T10:30:04.495Z,0.30
2018-12-13T10:31:04.595Z,0.40
2018-12-13T10:32:04.499Z,0.30
2018-12-13T10:33:04.507Z,0.40
2018-12-13T10:34:04.509Z,0.30
2018-12-13T10:35:11.133Z,0.30
2018-12-13T10:36:04.518Z,0.40
2018-12-13T10:37:04.515Z,0.40
2018-12-13T10:38:04.521Z,0.40
2018-12-13T10:39:04.524Z,0.40
2018-12-13T10:40:04.525Z,0.40
2018-12-13T10:41:04.530Z,0.30
2018-12-13T10:42:04.535Z,0.40
2018-12-13T10:43:04.538Z,0.40
2018-12-13T10:44:04.539Z,0.30
2018-12-13T10:45:04.546Z,0.40
2018-12-13T10:46:04.546Z,0.40
2018-12-13T10:47:04.549Z,0.50
2018-12-13T10:48:04.553Z,0.40
2018-12-13T10:49:04.563Z,0.40
2018-12-13T10:50:04.563Z,0.50
2018-12-13T10:51:04.573Z,0.40
2018-12-13T10:52:04.568Z,0.40
2018-12-13T10:53:04.568Z,0.40
2018-12-13T10:54:04.575Z,0.40
2018-12-13T10:55:04.585Z,0.50
2018-12-13T10:56:04.582Z,0.40
2018-12-13T10:57:04.589Z,0.50
2018-12-13T10:58:04.593Z,0.40
2018-12-13T10:59:04.592Z,0.40
2018-12-13T11:00:04.591Z,0.30
2018-12-13T11:01:04.595Z,0.40
2018-12-13T11:02:04.598Z,0.40
2018-12-13T11:03:04.602Z,0.50
2018-12-13T11:04:04.608Z,0.60
2018-12-13T11:05:04.608Z,0.30
2018-12-13T11:06:04.615Z,0.50
2018-12-13T11:07:04.615Z,0.50
2018-12-13T11:08:04.617Z,0.50
2018-12-13T11:09:04.622Z,0.50
2018-12-13T11:10:04.627Z,0.50
2018-12-13T11:11:04.679Z,0.40
2018-12-13T11:12:04.633Z,0.40
2018-12-13T11:13:04.633Z,0.50
2018-12-13T11:14:04.639Z,0.40
2018-12-13T11:15:04.638Z,0.40
2018-12-13T11:16:04.644Z,0.40
2018-12-13T11:17:04.654Z,0.40
2018-12-13T11:18:04.649Z,0.50
2018-12-13T11:19:04.660Z,0.30
2018-12-13T11:20:04.661Z,0.40
2018-12-13T11:21:04.665Z,0.40
2018-12-13T11:22:04.665Z,0.40
2018-12-13T11:23:04.666Z,0.50
2018-12-13T11:24:04.671Z,0.40
2018-12-13T11:25:04.672Z,0.50
2018-12-13T11:26:04.726Z,0.40
2018-12-13T11:27:04.677Z,0.50
2018-12-13T11:28:04.680Z,0.60
2018-12-13T11:29:04.684Z,0.30
2018-12-13T11:30:04.688Z,0.50
2018-12-13T11:31:04.689Z,0.40
2018-12-13T11:32:04.690Z,0.40
2018-12-13T11:33:04.695Z,0.50
2018-12-13T11:34:04.699Z,0.40
2018-12-13T11:35:04.702Z,0.50
2018-12-13T11:36:04.704Z,0.50
2018-12-13T11:37:04.711Z,0.40
2018-12-13T11:38:04.709Z,0.40
2018-12-13T11:39:05.815Z,0.40
2018-12-13T11:40:04.716Z,0.40
2018-12-13T11:41:04.721Z,0.40
2018-12-13T11:42:05.408Z,0.40
2018-12-13T11:43:04.726Z,0.40
2018-12-13T11:44:04.728Z,0.50
2018-12-13T11:45:04.731Z,0.40
2018-12-13T11:46:04.738Z,0.40
2018-12-13T11:47:04.748Z,0.30
2018-12-13T11:48:04.741Z,0.50
2018-12-13T11:49:04.750Z,0.50
2018-12-13T11:50:04.747Z,0.40
2018-12-13T11:51:04.750Z,0.60
2018-12-13T11:52:04.752Z,0.40
2018-12-13T11:53:04.755Z,0.50
2018-12-13T11:54:04.758Z,0.40
2018-12-13T11:55:04.760Z,0.60
2018-12-13T11:56:04.764Z,0.40
2018-12-13T11:57:04.767Z,0.50
2018-12-13T11:58:04.772Z,0.50
2018-12-13T11:59:04.773Z,0.40
2018-12-13T12:00:04.775Z,0.40
2018-12-13T12:01:04.779Z,0.40
2018-12-13T12:02:04.782Z,0.40
2018-12-13T12:03:04.788Z,0.40
2018-12-13T12:04:04.788Z,0.50
2018-12-13T12:05:04.790Z,0.40
2018-12-13T12:06:04.806Z,0.50
2018-12-13T12:07:04.794Z,0.50
2018-12-13T12:08:04.824Z,0.30
2018-12-13T12:09:04.816Z,0.40
2018-12-13T12:10:04.804Z,0.30
2018-12-13T12:11:04.811Z,0.40
2018-12-13T12:12:04.811Z,0.50
2018-12-13T12:13:04.817Z,0.40
2018-12-13T12:14:04.822Z,0.40
2018-12-13T12:15:04.823Z,0.40
2018-12-13T12:16:04.823Z,0.40
2018-12-13T12:17:04.827Z,0.50
2018-12-13T12:18:04.830Z,0.40
2018-12-13T12:19:04.833Z,0.40
2018-12-13T12:20:04.835Z,0.30
2018-12-13T12:21:04.837Z,0.40
2018-12-13T12:22:04.842Z,0.40
2018-12-13T12:23:04.846Z,0.40
2018-12-13T12:24:04.845Z,0.40
2018-12-13T12:25:04.850Z,0.50
2018-12-13T12:26:04.855Z,0.40
2018-12-13T12:27:04.866Z,0.40
2018-12-13T12:28:04.868Z,0.50
2018-12-13T12:29:04.867Z,0.30
2018-12-13T12:30:04.872Z,0.50
2018-12-13T12:31:04.871Z,0.70
2018-12-13T12:32:04.871Z,0.40
2018-12-13T12:33:04.878Z,0.60
2018-12-13T12:34:04.880Z,0.40
2018-12-13T12:35:04.903Z,0.40
2018-12-13T12:36:04.882Z,0.40
2018-12-13T12:37:04.902Z,0.40
2018-12-13T12:38:04.888Z,0.40
2018-12-13T12:39:04.893Z,0.40
2018-12-13T12:40:04.898Z,0.40
2018-12-13T12:41:04.899Z,0.50
2018-12-13T12:42:04.902Z,0.40
2018-12-13T12:43:04.902Z,0.40
2018-12-13T12:44:04.907Z,0.50
2018-12-13T12:45:04.910Z,0.50
2018-12-13T12:46:04.913Z,0.40
2018-12-13T12:47:04.916Z,0.50
2018-12-13T12:48:04.918Z,0.40
2018-12-13T12:49:04.920Z,0.60
2018-12-13T12:50:04.925Z,0.50
2018-12-13T12:51:04.927Z,0.50
2018-12-13T12:52:04.935Z,0.60
2018-12-13T12:53:04.935Z,0.60
2018-12-13T12:54:04.940Z,0.50
2018-12-13T12:55:04.946Z,0.50
2018-12-13T12:56:04.947Z,0.60
2018-12-13T12:57:04.951Z,0.60
2018-12-13T12:58:04.949Z,0.50
2018-12-13T12:59:04.952Z,0.70
2018-12-13T13:00:04.953Z,0.40
2018-12-13T13:01:05.005Z,0.50
2018-12-13T13:02:04.961Z,0.60
2018-12-13T13:03:04.960Z,0.80
2018-12-13T13:04:04.965Z,0.60
2018-12-13T13:05:04.968Z,0.70
2018-12-13T13:06:05.020Z,0.60
2018-12-13T13:07:04.972Z,0.70
2018-12-13T13:08:04.977Z,0.50
2018-12-13T13:09:04.979Z,0.50
2018-12-13T13:10:04.985Z,0.50
2018-12-13T13:11:04.988Z,0.60
2018-12-13T13:12:04.986Z,0.50
2018-12-13T13:13:04.988Z,0.70
2018-12-13T13:14:04.991Z,0.90
2018-12-13T13:15:04.996Z,0.60
2018-12-13T13:16:05.097Z,0.70
2018-12-13T13:17:05.003Z,0.70
2018-12-13T13:18:05.014Z,0.70